createdAt,value
2022-09-25T00:01:51.586Z,79.82
2022-09-25T00:04:19.503Z,79.77
2022-09-25T00:06:48.645Z,79.78
2022-09-25T00:09:20.189Z,80.06
2022-09-25T00:11:47.831Z,79.92
2022-09-25T00:14:14.888Z,79.79
2022-09-25T00:16:41.437Z,80.09
2022-09-25T00:19:39.738Z,80.77
2022-09-25T00:22:06.387Z,79.43
2022-09-25T00:24:34.076Z,80.03
2022-09-25T00:27:01.225Z,79.19
2022-09-25T00:29:27.795Z,79.25
2022-09-25T00:31:55.430Z,78.78
2022-09-25T00:34:21.931Z,79.57
2022-09-25T00:36:48.385Z,79.95
2022-09-25T00:39:14.991Z,79.82
2022-09-25T00:41:41.580Z,79.09
2022-09-25T00:44:46.371Z,79.37
2022-09-25T00:47:17.852Z,79.50
2022-09-25T00:49:45.355Z,80.05
2022-09-25T00:52:13.762Z,80.62
2022-09-25T00:54:49.097Z,80.65
2022-09-25T00:57:19.746Z,79.93
2022-09-25T00:59:57.567Z,79.93
2022-09-25T01:02:28.686Z,80.14
2022-09-25T01:04:59.886Z,80.32
2022-09-25T01:07:26.731Z,80.94
2022-09-25T01:09:59.383Z,80.92
2022-09-25T01:12:26.086Z,79.52
2022-09-25T01:14:53.297Z,80.19
2022-09-25T01:17:27.128Z,80.20
2022-09-25T01:20:31.335Z,79.71
2022-09-25T01:23:20.569Z,79.90
2022-09-25T01:26:18.052Z,79.94
2022-09-25T01:28:50.527Z,80.66
2022-09-25T01:31:35.472Z,80.83
2022-09-25T01:34:40.469Z,81.07
2022-09-25T01:37:31.673Z,81.06
2022-09-25T01:40:12.288Z,80.86
2022-09-25T01:42:51.358Z,80.82
2022-09-25T01:45:41.145Z,81.27
2022-09-25T01:48:10.670Z,81.46
2022-09-25T01:51:04.142Z,80.97
2022-09-25T01:53:43.517Z,81.88
2022-09-25T01:56:32.960Z,82.34
2022-09-25T01:59:08.421Z,82.21
2022-09-25T02:01:40.884Z,82.52
2022-09-25T02:04:16.694Z,82.66
2022-09-25T02:06:46.762Z,82.41
2022-09-25T02:09:19.564Z,83.04
2022-09-25T02:11:50.713Z,83.16
2022-09-25T02:14:23.103Z,82.79
2022-09-25T02:16:55.538Z,82.72
2022-09-25T02:19:41.275Z,82.27
2022-09-25T02:22:10.388Z,82.48
2022-09-25T02:24:48.142Z,82.13
2022-09-25T02:27:16.124Z,82.39
2022-09-25T02:29:45.541Z,82.08
2022-09-25T02:32:15.675Z,82.22
2022-09-25T02:34:42.228Z,82.57
2022-09-25T02:37:16.613Z,82.04
2022-09-25T02:39:48.216Z,81.68
2022-09-25T02:42:37.040Z,81.87
2022-09-25T02:45:08.302Z,82.34
2022-09-25T02:47:42.461Z,82.15
2022-09-25T02:50:47.648Z,82.67
2022-09-25T02:53:19.933Z,82.65
2022-09-25T02:55:57.498Z,82.34
2022-09-25T02:58:42.162Z,82.49
2022-09-25T03:01:12.710Z,82.72
2022-09-25T03:03:40.236Z,82.71
2022-09-25T03:06:08.726Z,82.79
2022-09-25T03:08:38.943Z,83.06
2022-09-25T03:11:07.974Z,83.28
2022-09-25T03:13:35.145Z,83.17
2022-09-25T03:16:23.377Z,83.16
2022-09-25T03:18:49.938Z,83.07
2022-09-25T03:21:16.802Z,83.49
2022-09-25T03:23:43.549Z,84.02
2022-09-25T03:26:09.966Z,84.17
2022-09-25T03:28:36.581Z,84.02
2022-09-25T03:31:06.953Z,84.69
2022-09-25T03:33:36.846Z,84.75
2022-09-25T03:36:07.465Z,84.53
2022-09-25T03:38:34.138Z,84.63
2022-09-25T03:41:02.268Z,84.31
2022-09-25T03:43:33.529Z,84.44
2022-09-25T03:46:00.159Z,84.47
2022-09-25T03:48:26.722Z,84.40
2022-09-25T03:50:53.364Z,84.26
2022-09-25T03:53:19.832Z,84.01
2022-09-25T03:55:49.164Z,83.43
2022-09-25T03:58:17.218Z,82.71
2022-09-25T04:00:46.157Z,82.60
2022-09-25T04:03:14.383Z,82.37
2022-09-25T04:05:42.210Z,82.33
2022-09-25T04:08:08.651Z,82.83
2022-09-25T04:10:38.748Z,83.09
2022-09-25T04:13:07.121Z,83.28
2022-09-25T04:15:34.831Z,83.29
2022-09-25T04:18:05.932Z,82.95
2022-09-25T04:20:32.769Z,82.35
2022-09-25T04:22:59.281Z,82.60
2022-09-25T04:25:25.968Z,83.64
2022-09-25T04:27:55.531Z,83.74
2022-09-25T04:30:26.946Z,83.93
2022-09-25T04:33:12.709Z,84.60
2022-09-25T04:35:39.304Z,84.79
2022-09-25T04:38:05.813Z,84.62
2022-09-25T04:40:32.853Z,85.03
2022-09-25T04:43:01.527Z,85.21
2022-09-25T04:45:29.280Z,85.34
2022-09-25T04:47:59.911Z,84.62
2022-09-25T04:50:28.416Z,84.82
2022-09-25T04:52:57.053Z,85.04
2022-09-25T04:55:24.471Z,85.07
2022-09-25T04:57:59.765Z,85.71
2022-09-25T05:00:29.479Z,85.84
2022-09-25T05:02:56.191Z,85.54
2022-09-25T05:05:27.324Z,83.31
2022-09-25T05:07:55.428Z,83.78
2022-09-25T05:10:23.748Z,83.32
2022-09-25T05:12:55.731Z,83.94
2022-09-25T05:15:22.550Z,84.55
2022-09-25T05:17:49.261Z,84.79
2022-09-25T05:20:17.197Z,85.30
2022-09-25T05:22:44.529Z,85.12
2022-09-25T05:25:11.063Z,85.52
2022-09-25T05:27:37.590Z,85.61
2022-09-25T05:30:04.524Z,85.55
2022-09-25T05:32:31.173Z,85.53
2022-09-25T05:34:57.738Z,85.13
2022-09-25T05:37:24.440Z,82.84
2022-09-25T05:39:50.858Z,83.27
2022-09-25T05:42:19.400Z,83.81
2022-09-25T05:44:46.289Z,84.30
2022-09-25T05:47:12.720Z,84.60
2022-09-25T05:49:39.145Z,83.79
2022-09-25T05:52:05.621Z,83.49
2022-09-25T05:54:32.055Z,83.37
2022-09-25T05:56:58.833Z,83.75
2022-09-25T05:59:25.447Z,84.03
2022-09-25T06:01:51.955Z,84.46
2022-09-25T06:04:18.536Z,83.49
2022-09-25T06:06:45.000Z,83.72
2022-09-25T06:09:11.480Z,84.13
2022-09-25T06:11:38.025Z,84.02
2022-09-25T06:14:04.559Z,84.22
2022-09-25T06:16:31.170Z,84.25
2022-09-25T06:18:57.852Z,83.42
2022-09-25T06:21:24.390Z,83.84
2022-09-25T06:23:50.923Z,83.62
2022-09-25T06:26:17.390Z,83.29
2022-09-25T06:28:44.081Z,83.55
2022-09-25T06:31:10.646Z,82.84
2022-09-25T06:33:37.136Z,82.55
2022-09-25T06:36:05.526Z,81.69
2022-09-25T06:38:34.379Z,82.43
2022-09-25T06:41:01.170Z,82.27
2022-09-25T06:43:28.529Z,82.38
2022-09-25T06:45:55.075Z,82.22
2022-09-25T06:48:22.292Z,81.27
2022-09-25T06:50:52.594Z,81.49
2022-09-25T06:53:21.671Z,80.41
2022-09-25T06:55:49.643Z,80.07
2022-09-25T06:58:19.604Z,79.72
2022-09-25T07:00:47.777Z,79.13
2022-09-25T07:03:33.438Z,78.73
2022-09-25T07:06:01.465Z,77.87
2022-09-25T07:08:28.583Z,78.09
2022-09-25T07:10:56.963Z,77.94
2022-09-25T07:13:30.080Z,76.99
2022-09-25T07:15:59.209Z,76.80
2022-09-25T07:18:27.249Z,74.35
2022-09-25T07:20:59.091Z,73.98
2022-09-25T07:23:25.661Z,73.73
2022-09-25T07:25:53.593Z,73.85
2022-09-25T07:28:20.355Z,74.71
2022-09-25T07:30:48.672Z,73.65
2022-09-25T07:33:16.470Z,75.27
2022-09-25T07:35:42.968Z,75.04
2022-09-25T07:38:09.433Z,74.55
2022-09-25T07:40:36.118Z,74.52
2022-09-25T07:43:03.781Z,73.72
2022-09-25T07:45:31.107Z,74.35
2022-09-25T07:47:59.100Z,74.55
2022-09-25T07:50:25.570Z,73.49
2022-09-25T07:52:53.559Z,74.36
2022-09-25T07:55:20.776Z,73.43
2022-09-25T07:57:48.956Z,73.57
2022-09-25T08:00:15.532Z,73.99
2022-09-25T08:02:42.341Z,73.40
2022-09-25T08:05:10.369Z,74.00
2022-09-25T08:07:37.027Z,73.01
2022-09-25T08:10:03.822Z,75.34
2022-09-25T08:12:30.357Z,75.32
2022-09-25T08:14:57.407Z,74.20
2022-09-25T08:17:23.927Z,73.99
2022-09-25T08:19:50.359Z,73.77
2022-09-25T08:22:16.791Z,73.33
2022-09-25T08:24:43.283Z,73.04
2022-09-25T08:27:09.764Z,73.25
2022-09-25T08:29:36.269Z,73.07
2022-09-25T08:32:02.938Z,72.56
2022-09-25T08:34:40.628Z,71.90
2022-09-25T08:37:08.376Z,73.47
2022-09-25T08:39:34.964Z,71.53
2022-09-25T08:42:02.344Z,71.27
2022-09-25T08:44:36.243Z,69.54
2022-09-25T08:47:30.307Z,70.52
2022-09-25T08:50:12.746Z,71.50
2022-09-25T08:52:48.035Z,70.02
2022-09-25T08:55:52.762Z,70.76
2022-09-25T08:58:33.346Z,70.21
2022-09-25T09:01:04.689Z,70.24
2022-09-25T09:03:33.326Z,70.02
2022-09-25T09:06:07.301Z,69.96
2022-09-25T09:08:38.616Z,69.07
2022-09-25T09:11:13.707Z,68.95
2022-09-25T09:13:55.135Z,68.62
2022-09-25T09:16:33.080Z,69.24
2022-09-25T09:19:03.532Z,68.72
2022-09-25T09:21:37.869Z,69.41
2022-09-25T09:24:11.846Z,68.87
2022-09-25T09:27:09.458Z,66.71
2022-09-25T09:29:53.248Z,69.84
2022-09-25T09:32:31.472Z,68.64
2022-09-25T09:35:13.029Z,70.19
2022-09-25T09:37:58.503Z,67.49
2022-09-25T09:40:51.826Z,65.69
2022-09-25T09:43:57.881Z,67.89
2022-09-25T09:46:56.551Z,67.33
2022-09-25T09:49:51.571Z,67.54
2022-09-25T09:52:23.270Z,66.90
2022-09-25T09:54:55.160Z,64.35
2022-09-25T09:57:26.627Z,65.33
2022-09-25T10:00:05.026Z,65.17
2022-09-25T10:02:37.065Z,64.03
2022-09-25T10:05:09.905Z,65.27
2022-09-25T10:07:40.280Z,64.89
2022-09-25T10:10:15.084Z,65.94
2022-09-25T10:12:53.703Z,64.02
2022-09-25T10:15:42.195Z,63.40
2022-09-25T10:18:09.247Z,63.89
2022-09-25T10:20:55.455Z,62.20
2022-09-25T10:23:46.401Z,61.45
2022-09-25T10:26:36.988Z,61.65
2022-09-25T10:29:36.112Z,61.10
2022-09-25T10:32:04.066Z,62.00
2022-09-25T10:34:31.944Z,61.06
2022-09-25T10:36:58.760Z,60.13
2022-09-25T10:39:48.895Z,57.36
2022-09-25T10:42:33.831Z,55.37
2022-09-25T10:45:00.359Z,57.07
2022-09-25T10:47:49.509Z,57.20
2022-09-25T10:50:21.316Z,58.13
2022-09-25T10:52:54.040Z,56.47
2022-09-25T10:55:28.479Z,55.26
2022-09-25T10:58:03.338Z,57.89
2022-09-25T11:00:30.046Z,59.84
2022-09-25T11:03:03.257Z,56.26
2022-09-25T11:05:33.839Z,56.95
2022-09-25T11:08:04.459Z,56.94
2022-09-25T11:10:42.707Z,57.21
2022-09-25T11:13:24.414Z,56.54
2022-09-25T11:15:54.364Z,56.76
2022-09-25T11:18:43.017Z,55.96
2022-09-25T11:21:18.434Z,55.29
2022-09-25T11:24:02.152Z,53.70
2022-09-25T11:26:34.798Z,53.97
2022-09-25T11:29:13.022Z,56.15
2022-09-25T11:31:45.761Z,53.35
2022-09-25T11:34:33.714Z,52.11
2022-09-25T11:37:11.412Z,50.08
2022-09-25T11:40:01.316Z,52.67
2022-09-25T11:42:51.412Z,52.91
2022-09-25T11:45:30.485Z,50.64
2022-09-25T11:48:24.000Z,49.45
2022-09-25T11:51:14.829Z,53.94
2022-09-25T11:53:52.963Z,50.81
2022-09-25T11:56:33.038Z,50.53
2022-09-25T11:59:15.792Z,49.31
2022-09-25T12:01:48.878Z,53.86
2022-09-25T12:04:59.295Z,48.00
2022-09-25T12:07:53.728Z,47.84
2022-09-25T12:10:28.688Z,48.31
2022-09-25T12:13:13.053Z,51.94
2022-09-25T12:16:20.080Z,51.58
2022-09-25T12:19:12.760Z,51.43
2022-09-25T12:22:02.011Z,54.14
2022-09-25T12:24:46.280Z,53.56
2022-09-25T12:27:23.171Z,57.71
2022-09-25T12:30:11.951Z,54.00
2022-09-25T12:32:47.251Z,52.48
2022-09-25T12:35:33.931Z,52.97
2022-09-25T12:38:24.617Z,52.64
2022-09-25T12:41:24.096Z,54.20
2022-09-25T12:43:59.475Z,50.87
2022-09-25T12:46:26.061Z,50.46
2022-09-25T12:49:34.614Z,54.69
2022-09-25T12:52:22.790Z,54.82
2022-09-25T12:55:00.456Z,53.44
2022-09-25T12:57:35.208Z,50.87
2022-09-25T13:00:20.261Z,49.23
2022-09-25T13:02:55.780Z,51.35
2022-09-25T13:06:04.638Z,49.31
2022-09-25T13:08:41.736Z,49.31
2022-09-25T13:11:40.933Z,48.64
2022-09-25T13:14:26.357Z,49.83
2022-09-25T13:16:53.043Z,46.80
2022-09-25T13:19:33.321Z,47.14
2022-09-25T13:22:06.406Z,46.66
2022-09-25T13:24:53.939Z,45.53
2022-09-25T13:27:23.183Z,43.84
2022-09-25T13:29:57.110Z,44.91
2022-09-25T13:32:31.807Z,44.06
2022-09-25T13:35:07.079Z,44.21
2022-09-25T13:37:37.255Z,42.44
2022-09-25T13:40:45.256Z,44.43
2022-09-25T13:43:22.832Z,42.03
2022-09-25T13:46:19.962Z,43.85
2022-09-25T13:48:46.488Z,47.03
2022-09-25T13:51:22.103Z,43.38
2022-09-25T13:54:04.696Z,43.59
2022-09-25T13:56:34.169Z,43.16
2022-09-25T13:59:04.064Z,42.64
2022-09-25T14:01:41.730Z,43.65
2022-09-25T14:04:21.849Z,45.31
2022-09-25T14:06:54.692Z,45.06
2022-09-25T14:09:24.284Z,44.99
2022-09-25T14:12:03.311Z,45.80
2022-09-25T14:14:35.913Z,48.37
2022-09-25T14:17:04.618Z,48.34
2022-09-25T14:19:39.599Z,50.36
2022-09-25T14:22:07.602Z,49.34
2022-09-25T14:24:35.545Z,49.17
2022-09-25T14:27:02.392Z,47.55
2022-09-25T14:29:39.586Z,45.54
2022-09-25T14:32:54.590Z,46.04
2022-09-25T14:35:47.924Z,46.42
2022-09-25T14:38:51.259Z,46.20
2022-09-25T14:41:53.094Z,47.51
2022-09-25T14:44:25.680Z,48.81
2022-09-25T14:46:54.497Z,52.34
2022-09-25T14:49:33.436Z,46.08
2022-09-25T14:52:04.122Z,46.89
2022-09-25T14:54:38.153Z,45.42
2022-09-25T14:57:06.250Z,46.35
2022-09-25T14:59:49.559Z,49.54
2022-09-25T15:02:23.949Z,46.57
2022-09-25T15:04:51.175Z,47.06
2022-09-25T15:07:22.924Z,51.31
2022-09-25T15:09:55.234Z,48.22
2022-09-25T15:12:27.352Z,48.98
2022-09-25T15:15:21.635Z,50.96
2022-09-25T15:17:59.256Z,49.39
2022-09-25T15:20:30.243Z,52.44
2022-09-25T15:23:06.230Z,52.75
2022-09-25T15:25:38.044Z,51.54
2022-09-25T15:28:07.331Z,54.44
2022-09-25T15:30:36.821Z,54.86
2022-09-25T15:33:03.343Z,54.29
2022-09-25T15:35:30.750Z,54.28
2022-09-25T15:38:11.101Z,54.90
2022-09-25T15:40:38.790Z,56.37
2022-09-25T15:43:13.224Z,56.72
2022-09-25T15:45:50.104Z,56.67
2022-09-25T15:48:21.026Z,56.89
2022-09-25T15:50:48.580Z,56.18
2022-09-25T15:53:43.916Z,55.26
2022-09-25T15:56:28.341Z,58.24
2022-09-25T15:59:14.344Z,54.95
2022-09-25T16:02:01.188Z,54.80
2022-09-25T16:04:46.589Z,56.32
2022-09-25T16:07:25.543Z,56.39
2022-09-25T16:10:02.534Z,58.30
2022-09-25T16:12:33.605Z,58.32
2022-09-25T16:15:25.604Z,58.16
2022-09-25T16:18:01.422Z,59.82
2022-09-25T16:20:39.431Z,57.60
2022-09-25T16:23:18.764Z,58.77
2022-09-25T16:25:45.768Z,57.77
2022-09-25T16:28:20.249Z,58.65
2022-09-25T16:30:55.358Z,58.89
2022-09-25T16:33:27.635Z,59.41
2022-09-25T16:36:13.045Z,58.85
2022-09-25T16:38:45.517Z,59.92
2022-09-25T16:41:11.988Z,60.29
2022-09-25T16:43:39.715Z,59.49
2022-09-25T16:46:16.075Z,61.34
2022-09-25T16:48:45.867Z,60.21
2022-09-25T16:51:23.878Z,60.50
2022-09-25T16:53:50.962Z,60.60
2022-09-25T16:56:29.533Z,61.97
2022-09-25T16:58:56.820Z,61.71
2022-09-25T17:01:25.305Z,62.27
2022-09-25T17:03:52.785Z,62.85
2022-09-25T17:06:26.921Z,63.37
2022-09-25T17:08:59.372Z,63.94
2022-09-25T17:11:26.126Z,64.46
2022-09-25T17:13:54.868Z,64.75
2022-09-25T17:16:21.638Z,66.20
2022-09-25T17:18:48.337Z,64.84
2022-09-25T17:21:16.507Z,65.25
2022-09-25T17:23:44.187Z,65.19
2022-09-25T17:26:23.387Z,65.29
2022-09-25T17:28:51.204Z,65.32
2022-09-25T17:31:20.472Z,65.46
2022-09-25T17:33:49.965Z,65.89
2022-09-25T17:36:17.032Z,65.99
2022-09-25T17:38:48.778Z,66.29
2022-09-25T17:41:20.697Z,66.48
2022-09-25T17:43:47.825Z,66.88
2022-09-25T17:46:19.226Z,66.73
2022-09-25T17:48:51.618Z,67.08
2022-09-25T17:51:25.286Z,67.94
2022-09-25T17:53:56.122Z,67.84
2022-09-25T17:56:24.347Z,68.01
2022-09-25T17:58:54.837Z,68.19
2022-09-25T18:01:23.296Z,69.04
2022-09-25T18:04:13.336Z,68.84
2022-09-25T18:06:43.364Z,68.72
2022-09-25T18:09:10.319Z,68.52
2022-09-25T18:11:36.977Z,69.16
2022-09-25T18:14:06.388Z,68.97
2022-09-25T18:16:32.976Z,69.56
2022-09-25T18:19:18.417Z,69.81
2022-09-25T18:22:03.474Z,69.59
2022-09-25T18:24:30.358Z,70.18
2022-09-25T18:26:58.035Z,70.46
2022-09-25T18:29:24.924Z,70.73
2022-09-25T18:31:52.056Z,71.17
2022-09-25T18:34:21.691Z,71.33
2022-09-25T18:36:49.937Z,71.79
2022-09-25T18:39:20.040Z,72.27
2022-09-25T18:41:47.884Z,72.82
2022-09-25T18:44:16.918Z,73.57
2022-09-25T18:46:43.687Z,74.48
2022-09-25T18:49:11.143Z,73.10
2022-09-25T18:51:37.933Z,73.22
2022-09-25T18:54:04.456Z,72.99
2022-09-25T18:56:34.552Z,73.02
2022-09-25T18:59:04.533Z,73.09
2022-09-25T19:01:32.953Z,74.25
2022-09-25T19:04:03.487Z,73.49
2022-09-25T19:06:30.086Z,74.27
2022-09-25T19:08:57.981Z,73.07
2022-09-25T19:11:25.859Z,72.66
2022-09-25T19:13:52.945Z,71.87
2022-09-25T19:16:20.765Z,72.59
2022-09-25T19:18:47.536Z,72.91
2022-09-25T19:21:15.825Z,74.02
2022-09-25T19:23:43.549Z,74.50
2022-09-25T19:26:15.134Z,73.29
2022-09-25T19:28:42.282Z,74.77
2022-09-25T19:31:18.046Z,74.09
2022-09-25T19:33:45.470Z,73.52
2022-09-25T19:36:15.861Z,73.67
2022-09-25T19:38:43.513Z,73.84
2022-09-25T19:41:16.238Z,74.47
2022-09-25T19:43:43.274Z,73.72
2022-09-25T19:46:12.827Z,73.76
2022-09-25T19:48:39.356Z,74.75
2022-09-25T19:51:09.194Z,73.99
2022-09-25T19:53:38.314Z,73.54
2022-09-25T19:56:06.059Z,73.54
2022-09-25T19:58:35.342Z,74.42
2022-09-25T20:01:03.364Z,74.64
2022-09-25T20:03:29.973Z,74.08
2022-09-25T20:05:56.640Z,73.43
2022-09-25T20:08:23.080Z,73.61
2022-09-25T20:10:49.568Z,73.72
2022-09-25T20:13:16.109Z,74.13
2022-09-25T20:15:45.704Z,74.04
2022-09-25T20:18:12.229Z,74.67
2022-09-25T20:20:38.879Z,74.95
2022-09-25T20:23:05.353Z,74.40
2022-09-25T20:25:31.866Z,74.73
2022-09-25T20:27:59.696Z,74.54
2022-09-25T20:30:26.471Z,74.66
2022-09-25T20:32:52.915Z,75.07
2022-09-25T20:35:19.920Z,75.96
2022-09-25T20:37:47.223Z,76.14
2022-09-25T20:40:15.101Z,76.28
2022-09-25T20:42:42.291Z,76.44
2022-09-25T20:45:10.063Z,76.47
2022-09-25T20:47:36.993Z,76.38
2022-09-25T20:50:04.902Z,76.94
2022-09-25T20:52:32.767Z,76.77
2022-09-25T20:54:59.797Z,77.44
2022-09-25T20:57:26.336Z,77.64
2022-09-25T20:59:52.842Z,78.39
2022-09-25T21:02:19.422Z,79.27
2022-09-25T21:04:45.999Z,79.47
2022-09-25T21:07:16.805Z,79.76
2022-09-25T21:09:43.772Z,79.66
2022-09-25T21:12:10.321Z,79.65
2022-09-25T21:14:37.231Z,80.00
2022-09-25T21:17:04.017Z,79.42
2022-09-25T21:19:31.835Z,79.11
2022-09-25T21:21:58.358Z,78.90
2022-09-25T21:24:24.895Z,78.47
2022-09-25T21:26:54.069Z,78.85
2022-09-25T21:29:20.832Z,78.48
2022-09-25T21:31:50.376Z,78.09
2022-09-25T21:34:18.204Z,78.57
2022-09-25T21:36:45.706Z,79.09
2022-09-25T21:39:13.330Z,79.48
2022-09-25T21:41:40.206Z,79.56
2022-09-25T21:44:15.385Z,80.21
2022-09-25T21:46:42.191Z,80.11
2022-09-25T21:49:08.879Z,80.92
2022-09-25T21:51:45.357Z,80.35
2022-09-25T21:54:13.726Z,80.33
2022-09-25T21:56:41.353Z,79.96
2022-09-25T21:59:09.334Z,80.13
2022-09-25T22:01:38.596Z,81.00
2022-09-25T22:04:06.397Z,81.46
2022-09-25T22:06:35.691Z,81.21
2022-09-25T22:09:06.089Z,81.67
2022-09-25T22:11:33.035Z,82.08
2022-09-25T22:14:00.473Z,81.00
2022-09-25T22:16:30.308Z,81.31
2022-09-25T22:18:58.044Z,81.54
2022-09-25T22:21:30.297Z,81.73
2022-09-25T22:23:57.404Z,81.87
2022-09-25T22:26:24.719Z,82.48
2022-09-25T22:28:51.944Z,82.87
2022-09-25T22:31:21.674Z,82.80
2022-09-25T22:33:49.255Z,82.99
2022-09-25T22:36:15.818Z,82.83
2022-09-25T22:38:42.368Z,82.97
2022-09-25T22:41:11.518Z,83.61
2022-09-25T22:43:38.193Z,83.64
2022-09-25T22:46:06.389Z,83.85
2022-09-25T22:48:33.562Z,83.69
2022-09-25T22:51:21.659Z,84.64
2022-09-25T22:53:49.089Z,85.09
2022-09-25T22:56:17.173Z,85.01
2022-09-25T22:58:47.434Z,84.69
2022-09-25T23:01:21.334Z,85.14
2022-09-25T23:03:48.530Z,84.98
2022-09-25T23:06:15.047Z,84.79
2022-09-25T23:08:41.516Z,84.29
2022-09-25T23:11:08.524Z,84.63
2022-09-25T23:13:36.498Z,84.54
2022-09-25T23:16:07.876Z,84.24
2022-09-25T23:18:37.011Z,84.06
2022-09-25T23:21:04.488Z,84.27
2022-09-25T23:23:31.663Z,84.16
2022-09-25T23:26:06.065Z,84.08
2022-09-25T23:28:38.380Z,84.25
2022-09-25T23:31:10.734Z,83.74
2022-09-25T23:33:38.023Z,83.39
2022-09-25T23:36:10.304Z,83.68
2022-09-25T23:38:37.430Z,83.59
2022-09-25T23:41:19.615Z,83.58
2022-09-25T23:43:47.924Z,84.33
2022-09-25T23:46:16.294Z,83.34
2022-09-25T23:48:43.663Z,83.84
2022-09-25T23:51:11.071Z,83.92
2022-09-25T23:53:38.354Z,83.50
2022-09-25T23:56:13.948Z,83.72
2022-09-25T23:58:41.409Z,83.94
